Nordic Harrier — V7VH2 — position and weather

sailwx.info

Track history (hours):
 
Tides and Currents Weather Stations Pressure Air Temp Water Temp Dewpoint Dewpoint Depression Visibility Wind Speed Wind Dir Waves Ship Positions

Nordic Harrier

Last reported at 2016-Aug-11 19:16 UTC. Time now 2016-Sep-26 12:16 UTC.
Position N 01°55' E 102°19'.
Warning: this ship's position is 45 days out of date.

Length 274 m; draft 9 m.

Type: Ship. MMSI: 538004121.

Date/timePositionNaut miles runAvg speedWind from/ knotsBaromVisibWave heightAir tempDewpointWater temp
2016-Aug-11 19:16N 01°55' E 102°19'6 8.5
2016-Aug-11 18:33N 01°53' E 102°25'8 8.4
2016-Aug-11 17:33N 01°49' E 102°32'8 8.4
2016-Aug-11 16:33N 01°46' E 102°40'10 8.7
2016-Aug-11 15:27N 01°42' E 102°49'66 8.3
2016-Aug-11 07:33N 01°09' E 103°45'9 9.1
2016-Aug-11 06:33N 01°13' E 103°54'3 2.7
2016-Aug-11 05:24N 01°16' E 103°56'0 0.1
2016-Aug-11 04:32N 01°16' E 103°56'0 0.0
2016-Aug-11 03:17N 01°16' E 103°56'0 0.1
2016-Aug-11 02:30N 01°16' E 103°56'0 0.0
2016-Aug-11 01:32N 01°16' E 103°56'0 0.0
2016-Aug-11 00:29N 01°16' E 103°56'0 0.1
2016-Aug-10 23:29N 01°16' E 103°56'0 0.0
2016-Aug-10 22:17N 01°16' E 103°56'0 0.0
2016-Aug-10 21:32N 01°15' E 103°56'0 0.0
2016-Aug-10 20:32N 01°15' E 103°56'0 0.0
2016-Aug-10 19:29N 01°15' E 103°56'0 0.0
2016-Aug-10 18:29N 01°15' E 103°56'0 0.0
2016-Aug-10 16:20N 01°15' E 103°56'0 0.0
2016-Aug-10 15:14N 01°15' E 103°56'0 0.0
2016-Aug-10 14:29N 01°15' E 103°56'0 0.0
2016-Aug-10 12:29N 01°15' E 103°56'0 0.0
2016-Aug-10 11:26N 01°16' E 103°56'0 0.0
2016-Aug-10 10:29N 01°16' E 103°56'0 0.0
2016-Aug-10 09:29N 01°15' E 103°56'0 0.1
2016-Aug-10 08:26N 01°15' E 103°56'2 1.7
2016-Aug-10 07:33N 01°16' E 103°57'6 5.6
2016-Aug-10 06:33N 01°16' E 104°03'10 9.2
2016-Aug-10 05:29N 01°17' E 104°13'  
Track history (hours):
 
Tides and Currents Weather Stations Pressure Air Temp Water Temp Dewpoint Dewpoint Depression Visibility Wind Speed Wind Dir Waves Ship Positions

Nordic Harrier

Last reported at 2016-Aug-11 19:16 UTC. Time now 2016-Sep-26 12:16 UTC.
Position N 01°55' E 102°19'.
Warning: this ship's position is 45 days out of date.

Length 274 m; draft 9 m.

Type: Ship. MMSI: 538004121.

Date/timePositionNaut miles runAvg speedWind from/ knotsBaromVisibWave heightAir tempDewpointWater temp
2016-Aug-11 19:16N 01°55' E 102°19'6 8.5
2016-Aug-11 18:33N 01°53' E 102°25'8 8.4
2016-Aug-11 17:33N 01°49' E 102°32'8 8.4
2016-Aug-11 16:33N 01°46' E 102°40'10 8.7
2016-Aug-11 15:27N 01°42' E 102°49'66 8.3
2016-Aug-11 07:33N 01°09' E 103°45'9 9.1
2016-Aug-11 06:33N 01°13' E 103°54'3 2.7
2016-Aug-11 05:24N 01°16' E 103°56'0 0.1
2016-Aug-11 04:32N 01°16' E 103°56'0 0.0
2016-Aug-11 03:17N 01°16' E 103°56'0 0.1
2016-Aug-11 02:30N 01°16' E 103°56'0 0.0
2016-Aug-11 01:32N 01°16' E 103°56'0 0.0
2016-Aug-11 00:29N 01°16' E 103°56'0 0.1
2016-Aug-10 23:29N 01°16' E 103°56'0 0.0
2016-Aug-10 22:17N 01°16' E 103°56'0 0.0
2016-Aug-10 21:32N 01°15' E 103°56'0 0.0
2016-Aug-10 20:32N 01°15' E 103°56'0 0.0
2016-Aug-10 19:29N 01°15' E 103°56'0 0.0
2016-Aug-10 18:29N 01°15' E 103°56'0 0.0
2016-Aug-10 16:20N 01°15' E 103°56'0 0.0
2016-Aug-10 15:14N 01°15' E 103°56'0 0.0
2016-Aug-10 14:29N 01°15' E 103°56'0 0.0
2016-Aug-10 12:29N 01°15' E 103°56'0 0.0
2016-Aug-10 11:26N 01°16' E 103°56'0 0.0
2016-Aug-10 10:29N 01°16' E 103°56'0 0.0
2016-Aug-10 09:29N 01°15' E 103°56'0 0.1
2016-Aug-10 08:26N 01°15' E 103°56'2 1.7
2016-Aug-10 07:33N 01°16' E 103°57'6 5.6
2016-Aug-10 06:33N 01°16' E 104°03'10 9.2
2016-Aug-10 05:29N 01°17' E 104°13'  

Dump ship's entire track history